Time;durP1;ratioP1;P1;durP2;ratioP2;P2;SDS_P1;SDS_P2;PMS_P1;PMS_P2;Temp;Humidity;BMP_temperature;BMP_pressure;BME280_temperature;BME280_humidity;BME280_pressure;Samples;Min_cycle;Max_cycle;Signal;HPM_P1;HPM_P2
2022/03/06 00:00:44;;;;;;;28.02;20.52;;;5.20;99.90;;;;;;4988145;28;20503;-70
2022/03/06 00:03:10;;;;;;;31.42;22.40;;;5.20;99.90;;;;;;4972381;28;20496;-71
2022/03/06 00:05:36;;;;;;;36.05;18.27;;;5.20;99.90;;;;;;4988343;28;20061;-69
2022/03/06 00:08:02;;;;;;;30.55;18.52;;;5.20;99.90;;;;;;4973807;28;20469;-69
2022/03/06 00:10:29;;;;;;;26.27;20.10;;;5.20;99.90;;;;;;4991525;28;20033;-71
2022/03/06 00:12:56;;;;;;;32.60;23.35;;;5.10;99.90;;;;;;4972960;28;20041;-70
2022/03/06 00:15:22;;;;;;;33.33;19.67;;;5.20;99.90;;;;;;4971332;28;20035;-71
2022/03/06 00:17:49;;;;;;;25.35;17.85;;;5.20;99.90;;;;;;4991933;28;20026;-70
2022/03/06 00:20:16;;;;;;;32.75;21.23;;;5.30;99.90;;;;;;4971822;28;20030;-70
2022/03/06 00:22:42;;;;;;;35.22;23.25;;;5.30;99.90;;;;;;4974277;28;20104;-70
2022/03/06 00:25:08;;;;;;;26.73;19.83;;;5.20;99.90;;;;;;4971338;28;20030;-69
2022/03/06 00:27:34;;;;;;;28.45;18.13;;;5.30;99.90;;;;;;4970361;28;20030;-69
2022/03/06 00:29:59;;;;;;;31.20;20.63;;;5.30;99.90;;;;;;4970177;28;20528;-71
2022/03/06 00:32:25;;;;;;;34.75;22.40;;;5.20;99.90;;;;;;4970418;28;20137;-68
2022/03/06 00:34:51;;;;;;;29.55;19.90;;;5.30;99.90;;;;;;4968996;28;20022;-70
2022/03/06 00:37:17;;;;;;;37.22;23.48;;;5.20;99.90;;;;;;4988852;28;20058;-70
2022/03/06 00:39:44;;;;;;;26.38;18.65;;;5.20;99.90;;;;;;4971632;28;20088;-69
2022/03/06 00:42:10;;;;;;;33.28;21.02;;;5.20;99.90;;;;;;4989742;28;20030;-69
2022/03/06 00:44:36;;;;;;;34.70;22.30;;;5.20;99.90;;;;;;4973910;28;20029;-70
2022/03/06 00:47:03;;;;;;;33.42;23.77;;;5.20;99.90;;;;;;4991612;28;20459;-70
2022/03/06 00:49:29;;;;;;;33.28;21.63;;;5.20;99.90;;;;;;4990108;28;20040;-70
2022/03/06 00:51:55;;;;;;;33.33;20.70;;;5.20;99.90;;;;;;4977326;28;20357;-70
2022/03/06 00:54:21;;;;;;;35.13;23.38;;;5.20;99.90;;;;;;4990490;28;20031;-69
2022/03/06 00:56:47;;;;;;;26.42;18.90;;;5.20;99.90;;;;;;4969253;28;20054;-69
2022/03/06 00:59:14;;;;;;;32.53;21.15;;;5.20;99.90;;;;;;4984443;28;20092;-70
2022/03/06 01:01:40;;;;;;;35.95;24.38;;;5.20;99.90;;;;;;4972834;28;20026;-70
2022/03/06 01:04:06;;;;;;;34.08;23.52;;;5.20;99.90;;;;;;4990445;28;20026;-69
2022/03/06 01:06:32;;;;;;;35.15;23.55;;;5.10;99.90;;;;;;4990102;28;20076;-69
2022/03/06 01:08:58;;;;;;;36.10;23.02;;;5.10;99.90;;;;;;4965348;28;20038;-69
2022/03/06 01:11:24;;;;;;;34.65;21.75;;;5.00;99.90;;;;;;4973002;28;20068;-70
2022/03/06 01:13:50;;;;;;;37.05;21.88;;;5.10;99.90;;;;;;4989871;28;20543;-71
2022/03/06 01:16:16;;;;;;;29.50;20.90;;;5.10;99.90;;;;;;4991321;28;20046;-69
2022/03/06 01:18:42;;;;;;;28.08;18.95;;;5.10;99.90;;;;;;4989281;28;20030;-70
2022/03/06 01:21:08;;;;;;;33.53;23.85;;;5.10;99.90;;;;;;4966143;28;20030;-70
2022/03/06 01:23:35;;;;;;;37.47;24.58;;;5.00;99.90;;;;;;4972201;28;20436;-70
2022/03/06 01:26:02;;;;;;;38.63;25.85;;;5.00;99.90;;;;;;4990238;28;20019;-70
2022/03/06 01:28:27;;;;;;;27.38;18.85;;;5.00;99.90;;;;;;4972928;28;20037;-70
2022/03/06 01:30:53;;;;;;;34.25;23.33;;;5.10;99.90;;;;;;4989999;28;20038;-71
2022/03/06 01:33:19;;;;;;;24.95;18.83;;;5.00;99.90;;;;;;4970474;28;20046;-70
2022/03/06 01:35:44;;;;;;;34.72;23.50;;;5.00;99.90;;;;;;4970196;28;20037;-70
2022/03/06 01:38:10;;;;;;;32.92;21.90;;;5.00;99.90;;;;;;4972177;28;20030;-70
2022/03/06 01:40:36;;;;;;;31.65;23.67;;;5.00;99.90;;;;;;4992183;28;20361;-70
2022/03/06 01:43:03;;;;;;;34.40;26.75;;;5.00;99.90;;;;;;4985372;28;20030;-70
2022/03/06 01:45:28;;;;;;;35.35;23.00;;;5.00;99.90;;;;;;4991073;28;20477;-70
2022/03/06 01:47:56;;;;;;;33.85;22.77;;;5.00;99.90;;;;;;4972022;28;20149;-70
2022/03/06 01:50:28;;;;;;;35.03;22.25;;;5.00;99.90;;;;;;4968299;28;20034;-69
2022/03/06 01:52:54;;;;;;;;;;;5.00;99.90;;;;;;4971904;28;20054;-69
2022/03/06 01:55:23;;;;;;;32.38;21.13;;;4.90;99.90;;;;;;4971288;28;19925;-70
2022/03/06 01:57:49;;;;;;;29.50;21.05;;;4.90;99.90;;;;;;4984559;28;20037;-70
2022/03/06 02:00:17;;;;;;;34.75;22.70;;;4.90;99.90;;;;;;4981850;28;20030;-69
2022/03/06 02:02:44;;;;;;;25.52;17.10;;;4.90;99.90;;;;;;4986897;28;20030;-70
2022/03/06 02:05:10;;;;;;;33.88;20.23;;;4.90;99.90;;;;;;4988250;28;20125;-70
2022/03/06 02:07:36;;;;;;;38.90;22.63;;;4.90;99.90;;;;;;4985304;28;20037;-71
2022/03/06 02:10:03;;;;;;;31.98;21.52;;;4.90;99.90;;;;;;4986406;28;20030;-70
2022/03/06 02:12:29;;;;;;;34.17;22.83;;;4.90;99.90;;;;;;4972222;28;20023;-70
2022/03/06 02:14:58;;;;;;;34.75;23.98;;;4.90;99.90;;;;;;4986086;28;20022;-69
2022/03/06 02:17:25;;;;;;;32.78;20.27;;;4.90;99.90;;;;;;4967532;28;20094;-70
2022/03/06 02:20:10;;;;;;;41.22;24.25;;;4.90;99.90;;;;;;4984460;28;20022;-70
2022/03/06 02:22:38;;;;;;;33.00;23.60;;;4.90;99.90;;;;;;4987711;28;20484;-70
2022/03/06 02:25:07;;;;;;;36.65;23.70;;;4.90;99.90;;;;;;4968542;28;20053;-71
2022/03/06 02:27:33;;;;;;;30.90;21.50;;;4.90;99.90;;;;;;4989864;28;20508;-70
2022/03/06 02:29:59;;;;;;;35.03;23.48;;;4.90;99.90;;;;;;4967840;28;20035;-70
2022/03/06 02:32:25;;;;;;;40.10;26.30;;;4.90;99.90;;;;;;4971442;28;20030;-70
2022/03/06 02:34:51;;;;;;;29.60;21.65;;;4.90;99.90;;;;;;4989657;28;20551;-71
2022/03/06 02:37:20;;;;;;;33.63;22.00;;;4.90;99.90;;;;;;4968996;28;20089;-71
2022/03/06 02:39:46;;;;;;;33.45;22.02;;;4.90;99.90;;;;;;4967967;28;20496;-70
2022/03/06 02:42:34;;;;;;;35.38;23.77;;;4.90;99.90;;;;;;4970637;28;20038;-70
2022/03/06 02:45:05;;;;;;;37.35;24.08;;;4.90;99.90;;;;;;4983089;28;20073;-70
2022/03/06 02:47:30;;;;;;;38.17;23.88;;;4.80;99.90;;;;;;4987587;28;20057;-69
2022/03/06 02:49:56;;;;;;;37.03;22.83;;;4.90;99.90;;;;;;4985295;28;20042;-70
2022/03/06 02:52:22;;;;;;;33.50;22.65;;;4.90;99.90;;;;;;4989075;28;20026;-70
2022/03/06 02:54:47;;;;;;;35.22;22.27;;;4.90;99.90;;;;;;4988883;28;20060;-70
2022/03/06 02:57:13;;;;;;;31.05;22.40;;;4.80;99.90;;;;;;4988966;28;20617;-70
2022/03/06 02:59:40;;;;;;;26.75;17.25;;;4.90;99.90;;;;;;4987174;28;20026;-70
2022/03/06 03:02:06;;;;;;;36.10;26.08;;;4.90;99.90;;;;;;4987855;28;20325;-69
2022/03/06 03:04:33;;;;;;;32.78;20.48;;;4.90;99.90;;;;;;4968271;28;20060;-71
2022/03/06 03:06:59;;;;;;;26.83;16.50;;;4.90;99.90;;;;;;4983409;28;20122;-70
2022/03/06 03:09:25;;;;;;;34.58;25.80;;;4.80;99.90;;;;;;4982902;28;20077;-71
2022/03/06 03:11:52;;;;;;;33.22;21.65;;;4.80;99.90;;;;;;4986799;28;20397;-71
2022/03/06 03:14:18;;;;;;;39.25;25.27;;;4.80;99.90;;;;;;4988626;28;20058;-70
2022/03/06 03:16:44;;;;;;;33.25;21.08;;;4.80;99.90;;;;;;4987796;28;20022;-69
2022/03/06 03:19:10;;;;;;;40.20;25.55;;;4.80;99.90;;;;;;4983883;28;20027;-70
2022/03/06 03:21:36;;;;;;;36.95;24.40;;;4.80;99.90;;;;;;4970207;28;20417;-70
2022/03/06 03:24:02;;;;;;;35.95;23.83;;;4.80;99.90;;;;;;4988626;28;20026;-70
2022/03/06 03:26:27;;;;;;;32.22;22.02;;;4.80;99.90;;;;;;4970768;28;20025;-70
2022/03/06 03:28:53;;;;;;;32.70;20.98;;;4.90;99.90;;;;;;4965734;28;20034;-70
2022/03/06 03:31:19;;;;;;;50.28;21.65;;;4.80;99.90;;;;;;4970408;28;20573;-70
2022/03/06 03:33:45;;;;;;;33.50;22.95;;;4.80;99.90;;;;;;4987020;28;20039;-70
2022/03/06 03:36:11;;;;;;;39.42;23.88;;;4.80;99.90;;;;;;4968744;28;20030;-69
2022/03/06 03:38:39;;;;;;;38.45;24.25;;;4.80;99.90;;;;;;4988555;28;20037;-71
2022/03/06 03:41:08;;;;;;;35.55;23.40;;;4.80;99.90;;;;;;4983872;28;20023;-70
2022/03/06 03:43:35;;;;;;;36.15;22.98;;;4.80;99.90;;;;;;4968898;28;20030;-70
2022/03/06 03:46:01;;;;;;;36.20;23.65;;;4.80;99.90;;;;;;4967104;28;20033;-71
2022/03/06 03:48:28;;;;;;;36.83;24.98;;;4.80;99.90;;;;;;4987717;28;20035;-70
2022/03/06 03:50:54;;;;;;;35.13;23.92;;;4.80;99.90;;;;;;4985151;28;20114;-70
2022/03/06 03:53:20;;;;;;;38.45;22.42;;;4.80;99.90;;;;;;4988928;28;20116;-70
2022/03/06 03:55:47;;;;;;;27.92;21.17;;;4.80;99.90;;;;;;4987924;28;20026;-71
2022/03/06 03:58:13;;;;;;;26.23;16.75;;;4.70;99.90;;;;;;4968791;28;20034;-70
2022/03/06 04:00:39;;;;;;;36.67;23.92;;;4.70;99.90;;;;;;4970800;28;20019;-71
2022/03/06 04:03:05;;;;;;;38.45;23.73;;;4.70;99.90;;;;;;4985334;28;20476;-69
2022/03/06 04:05:31;;;;;;;39.45;24.75;;;4.70;99.90;;;;;;4972145;28;20037;-70
2022/03/06 04:07:56;;;;;;;36.30;22.02;;;4.70;99.90;;;;;;4988072;28;20037;-70
2022/03/06 04:10:22;;;;;;;33.13;21.02;;;4.70;99.90;;;;;;4989528;28;20038;-69
2022/03/06 04:12:48;;;;;;;36.05;25.45;;;4.80;99.90;;;;;;4990991;28;20077;-71
2022/03/06 04:15:13;;;;;;;32.72;21.05;;;4.80;99.90;;;;;;4988098;28;20034;-70
2022/03/06 04:17:39;;;;;;;31.10;21.60;;;4.80;99.90;;;;;;4992507;28;20034;-70
2022/03/06 04:20:06;;;;;;;36.60;23.95;;;4.80;99.90;;;;;;4973345;28;20023;-70
2022/03/06 04:22:32;;;;;;;38.95;25.48;;;4.80;99.90;;;;;;5000490;28;20549;-69
2022/03/06 04:24:58;;;;;;;31.75;17.48;;;4.70;99.90;;;;;;4992799;28;20133;-70
2022/03/06 04:27:24;;;;;;;38.38;25.98;;;4.80;99.90;;;;;;4994504;28;20181;-69
2022/03/06 04:29:50;;;;;;;31.48;19.70;;;4.70;99.90;;;;;;4974829;28;20157;-69
2022/03/06 04:32:16;;;;;;;36.22;25.60;;;4.80;99.90;;;;;;4974173;28;20121;-70
2022/03/06 04:34:41;;;;;;;35.72;19.27;;;4.70;99.90;;;;;;4988427;28;20080;-71
2022/03/06 04:37:07;;;;;;;29.77;21.60;;;4.80;99.90;;;;;;4971678;28;20041;-70
2022/03/06 04:39:33;;;;;;;37.40;22.83;;;4.80;99.90;;;;;;4991519;28;20374;-70
2022/03/06 04:41:59;;;;;;;35.13;25.38;;;4.70;99.90;;;;;;4971358;28;20508;-70
2022/03/06 04:44:24;;;;;;;28.30;19.80;;;4.80;99.90;;;;;;4989776;28;20066;-70
2022/03/06 04:46:50;;;;;;;31.83;20.90;;;4.80;99.90;;;;;;4965934;28;20030;-70
2022/03/06 04:49:16;;;;;;;32.15;18.05;;;4.70;99.90;;;;;;4985491;28;20039;-72
2022/03/06 04:51:42;;;;;;;32.88;23.38;;;4.70;99.90;;;;;;4986966;28;20026;-71
2022/03/06 04:54:08;;;;;;;32.58;22.67;;;4.70;99.90;;;;;;4970975;28;20101;-72
2022/03/06 04:56:36;;;;;;;32.80;24.25;;;4.70;99.90;;;;;;4970218;28;20186;-71
2022/03/06 04:59:10;;;;;;;36.65;24.05;;;4.70;99.90;;;;;;4972390;28;20034;-70
2022/03/06 05:01:40;;;;;;;37.88;24.02;;;4.70;99.90;;;;;;4988629;28;20365;-71
2022/03/06 05:04:06;;;;;;;34.50;23.35;;;4.70;99.90;;;;;;4961744;28;20509;-70
2022/03/06 05:06:31;;;;;;;32.10;22.40;;;4.70;99.90;;;;;;4973247;28;20108;-70
2022/03/06 05:08:57;;;;;;;46.42;24.17;;;4.70;99.90;;;;;;4990299;28;20149;-71
2022/03/06 05:11:23;;;;;;;32.25;18.75;;;4.70;99.90;;;;;;4969024;28;20030;-70
2022/03/06 05:13:49;;;;;;;33.17;21.17;;;4.70;99.90;;;;;;4981943;28;20026;-69
2022/03/06 05:16:15;;;;;;;26.77;19.42;;;4.70;99.90;;;;;;4968260;28;20031;-71
2022/03/06 05:18:41;;;;;;;37.95;23.65;;;4.70;99.90;;;;;;4989425;28;20022;-70
2022/03/06 05:21:07;;;;;;;29.10;19.17;;;4.70;99.90;;;;;;4970839;28;20023;-71
2022/03/06 05:23:32;;;;;;;29.42;19.27;;;4.60;99.90;;;;;;4991390;28;20883;-71
2022/03/06 05:25:58;;;;;;;34.00;23.80;;;4.70;99.90;;;;;;4980408;28;20019;-70
2022/03/06 05:28:28;;;;;;;33.33;22.95;;;4.60;99.90;;;;;;4971529;28;20050;-71
2022/03/06 05:30:54;;;;;;;31.63;19.88;;;4.60;99.90;;;;;;4990961;28;20487;-68
2022/03/06 05:33:20;;;;;;;33.45;22.67;;;4.50;99.90;;;;;;4988344;28;20048;-70
2022/03/06 05:35:46;;;;;;;34.63;21.60;;;4.50;99.90;;;;;;4991021;28;20038;-70
2022/03/06 05:38:12;;;;;;;24.95;16.77;;;4.50;99.90;;;;;;4969216;28;20030;-70
2022/03/06 05:40:38;;;;;;;27.27;18.05;;;4.50;99.90;;;;;;4968377;28;20027;-70
2022/03/06 05:43:04;;;;;;;39.22;22.73;;;4.50;99.90;;;;;;4969409;28;20477;-70
2022/03/06 05:45:29;;;;;;;26.95;18.17;;;4.50;99.90;;;;;;4987602;28;20357;-69
2022/03/06 05:47:55;;;;;;;31.98;22.10;;;4.50;99.90;;;;;;4974871;28;20459;-70
2022/03/06 05:50:21;;;;;;;28.85;17.00;;;4.40;99.90;;;;;;4972713;28;20528;-69
2022/03/06 05:52:50;;;;;;;29.00;19.52;;;4.40;99.90;;;;;;4988681;28;20106;-70
2022/03/06 05:55:17;;;;;;;32.47;20.23;;;4.40;99.90;;;;;;4991480;28;20030;-70
2022/03/06 05:57:44;;;;;;;31.60;18.15;;;4.50;99.90;;;;;;4972038;28;20053;-69
2022/03/06 06:00:11;;;;;;;26.77;19.52;;;4.40;99.90;;;;;;4986610;28;20496;-70
2022/03/06 06:02:38;;;;;;;30.10;19.95;;;4.40;99.90;;;;;;4989825;28;20034;-69
2022/03/06 06:05:05;;;;;;;28.35;20.00;;;4.40;99.90;;;;;;4989623;28;20026;-71
2022/03/06 06:07:31;;;;;;;29.98;20.30;;;4.40;99.90;;;;;;4974087;28;20033;-71
2022/03/06 06:09:56;;;;;;;35.47;20.38;;;4.40;99.90;;;;;;4969955;28;20026;-70
2022/03/06 06:12:22;;;;;;;27.85;21.23;;;4.50;99.90;;;;;;4970613;28;20455;-70
2022/03/06 06:14:48;;;;;;;25.90;14.10;;;4.50;99.90;;;;;;4989897;28;20085;-70
2022/03/06 06:17:14;;;;;;;31.90;20.95;;;4.60;99.90;;;;;;4987085;28;20034;-69
2022/03/06 06:19:39;;;;;;;30.42;20.48;;;4.60;99.90;;;;;;4988131;28;20022;-71
2022/03/06 06:22:05;;;;;;;34.08;20.38;;;4.60;99.90;;;;;;4987372;28;20030;-69
2022/03/06 06:24:31;;;;;;;26.08;18.13;;;4.60;99.90;;;;;;4987848;28;20030;-69
2022/03/06 06:26:57;;;;;;;24.65;17.85;;;4.70;99.90;;;;;;4991213;28;20027;-70
2022/03/06 06:29:23;;;;;;;29.17;18.77;;;4.60;99.90;;;;;;4988073;28;20102;-70
2022/03/06 06:31:50;;;;;;;29.80;18.58;;;4.70;99.90;;;;;;4989337;28;20093;-71
2022/03/06 06:34:15;;;;;;;25.60;18.05;;;4.70;99.90;;;;;;4990652;28;20030;-70
2022/03/06 06:36:41;;;;;;;34.08;18.88;;;4.70;99.90;;;;;;4967646;28;20048;-70
2022/03/06 06:39:09;;;;;;;28.48;18.40;;;4.80;99.90;;;;;;4987902;28;20437;-70
2022/03/06 06:41:39;;;;;;;27.35;17.95;;;4.80;99.90;;;;;;4987974;28;20025;-70
2022/03/06 06:44:06;;;;;;;23.88;16.83;;;4.80;99.90;;;;;;4968269;28;20573;-70
2022/03/06 06:46:32;;;;;;;25.00;17.63;;;4.80;99.90;;;;;;4971522;28;20037;-69
2022/03/06 06:48:58;;;;;;;27.85;18.88;;;4.90;99.90;;;;;;4965257;28;20046;-71
2022/03/06 06:51:24;;;;;;;32.88;19.15;;;4.90;99.90;;;;;;4970534;28;20066;-70
2022/03/06 06:53:50;;;;;;;28.50;19.23;;;5.00;99.90;;;;;;4968241;28;20030;-69
2022/03/06 06:56:15;;;;;;;24.20;16.75;;;5.10;99.90;;;;;;4972865;28;20033;-69
2022/03/06 06:58:41;;;;;;;25.70;16.58;;;5.10;99.90;;;;;;4987564;28;20105;-69
2022/03/06 07:01:07;;;;;;;23.83;17.42;;;5.20;99.90;;;;;;4968538;28;20457;-70
2022/03/06 07:03:33;;;;;;;28.25;18.40;;;5.30;99.90;;;;;;4992249;28;20328;-70
2022/03/06 07:06:17;;;;;;;24.98;16.20;;;5.30;99.90;;;;;;4986146;28;20465;-70
2022/03/06 07:08:43;;;;;;;30.67;17.95;;;5.30;99.90;;;;;;4966361;28;20034;-70
2022/03/06 07:11:08;;;;;;;26.27;18.20;;;5.40;99.90;;;;;;4992442;28;20069;-72
2022/03/06 07:13:35;;;;;;;25.13;18.75;;;5.50;99.90;;;;;;4982380;28;20030;-71
2022/03/06 07:16:00;;;;;;;30.23;17.92;;;5.50;99.90;;;;;;4975749;28;20030;-69
2022/03/06 07:18:26;;;;;;;22.60;15.07;;;5.60;99.90;;;;;;4988722;28;20423;-69
2022/03/06 07:20:52;;;;;;;26.60;18.92;;;5.70;99.90;;;;;;4987266;28;20121;-70
2022/03/06 07:23:18;;;;;;;24.02;16.20;;;5.80;99.90;;;;;;4972559;28;20154;-71
2022/03/06 07:25:44;;;;;;;25.50;16.50;;;5.80;99.90;;;;;;4971863;28;20465;-71
2022/03/06 07:28:10;;;;;;;19.08;14.80;;;5.80;99.90;;;;;;4988955;28;20042;-70
2022/03/06 07:30:36;;;;;;;21.90;14.77;;;5.70;99.90;;;;;;4972114;28;20431;-70
2022/03/06 07:33:02;;;;;;;25.88;17.08;;;5.80;99.90;;;;;;4990419;28;20121;-71
2022/03/06 07:35:29;;;;;;;23.63;15.45;;;5.90;99.90;;;;;;4990133;28;20030;-71
2022/03/06 07:37:55;;;;;;;22.85;15.02;;;5.90;99.90;;;;;;4973023;28;20026;-71
2022/03/06 07:40:22;;;;;;;21.35;14.60;;;5.90;99.90;;;;;;4990002;28;20481;-69
2022/03/06 07:42:49;;;;;;;21.48;15.50;;;5.80;99.90;;;;;;4990753;28;20408;-71
2022/03/06 07:45:15;;;;;;;21.95;15.50;;;5.90;99.90;;;;;;4995099;28;20030;-71
2022/03/06 07:47:41;;;;;;;20.08;15.20;;;6.10;99.90;;;;;;4994093;28;20385;-70
2022/03/06 07:50:09;;;;;;;22.55;16.27;;;6.20;99.90;;;;;;4976572;28;20050;-71
2022/03/06 07:52:36;;;;;;;15.05;10.32;;;6.30;99.90;;;;;;4978846;28;20027;-71
2022/03/06 07:55:03;;;;;;;20.25;15.82;;;6.20;99.90;;;;;;4996241;28;20033;-70
2022/03/06 07:57:28;;;;;;;22.88;13.90;;;6.20;99.90;;;;;;4997340;28;20144;-70
2022/03/06 07:59:54;;;;;;;20.83;14.00;;;6.40;99.90;;;;;;4997016;28;20032;-71
2022/03/06 08:02:20;;;;;;;22.10;14.63;;;6.40;99.90;;;;;;4998984;28;20579;-70
2022/03/06 08:04:46;;;;;;;21.33;13.18;;;6.40;99.90;;;;;;4998398;28;20034;-71
2022/03/06 08:07:12;;;;;;;20.40;15.07;;;6.50;99.90;;;;;;4997503;28;20027;-70
2022/03/06 08:09:37;;;;;;;24.23;17.08;;;6.50;99.90;;;;;;4998457;28;20400;-71
2022/03/06 08:12:04;;;;;;;21.83;16.13;;;6.60;99.90;;;;;;4999256;28;20045;-70
2022/03/06 08:14:30;;;;;;;19.98;14.43;;;6.60;99.90;;;;;;4982087;28;20109;-71
2022/03/06 08:16:56;;;;;;;22.08;14.55;;;6.70;99.90;;;;;;4981862;28;20034;-71
2022/03/06 08:19:22;;;;;;;26.67;14.57;;;6.90;99.90;;;;;;4981417;28;20495;-72
2022/03/06 08:21:48;;;;;;;18.30;12.80;;;7.00;99.90;;;;;;4998593;28;20034;-71
2022/03/06 08:24:15;;;;;;;19.95;13.90;;;7.00;99.90;;;;;;4998710;28;20057;-71
2022/03/06 08:26:40;;;;;;;21.50;15.55;;;6.80;99.90;;;;;;4998625;28;20034;-71
2022/03/06 08:29:06;;;;;;;21.42;12.27;;;6.80;99.90;;;;;;4998732;28;20026;-71
2022/03/06 08:31:32;;;;;;;14.38;10.82;;;6.90;99.90;;;;;;4997292;28;20037;-70
2022/03/06 08:33:58;;;;;;;13.38;8.77;;;6.80;99.90;;;;;;4978509;28;20111;-70
2022/03/06 08:36:24;;;;;;;15.48;12.43;;;6.60;99.90;;;;;;4995048;28;20453;-70
2022/03/06 08:38:49;;;;;;;19.33;13.63;;;6.40;99.90;;;;;;4983260;28;20034;-70
2022/03/06 08:41:15;;;;;;;22.30;15.63;;;6.70;99.90;;;;;;4991049;28;20032;-70
2022/03/06 08:43:41;;;;;;;17.33;11.77;;;6.90;99.90;;;;;;4992179;28;20023;-70
2022/03/06 08:46:07;;;;;;;18.02;13.32;;;7.00;99.90;;;;;;4992602;28;20037;-70
2022/03/06 08:48:36;;;;;;;20.48;13.43;;;7.00;99.90;;;;;;4991243;28;20179;-70
2022/03/06 08:51:04;;;;;;;17.63;13.88;;;6.50;99.90;;;;;;4992503;28;20093;-71
2022/03/06 08:53:31;;;;;;;22.42;14.73;;;6.40;99.90;;;;;;4987277;28;20112;-71
2022/03/06 08:55:57;;;;;;;18.80;12.82;;;6.60;99.90;;;;;;4989060;28;20027;-70
2022/03/06 08:58:22;;;;;;;19.33;13.85;;;6.70;99.90;;;;;;4993046;28;20085;-69
2022/03/06 09:00:48;;;;;;;15.45;12.10;;;6.60;99.90;;;;;;4992229;28;20038;-69
2022/03/06 09:03:14;;;;;;;13.70;9.50;;;6.50;99.90;;;;;;4975029;28;20022;-70
2022/03/06 09:05:40;;;;;;;17.75;12.50;;;6.50;99.90;;;;;;4974819;28;20030;-70
2022/03/06 09:08:10;;;;;;;19.80;14.40;;;6.50;99.90;;;;;;4992456;28;20026;-70
2022/03/06 09:10:38;;;;;;;17.90;13.10;;;6.50;99.90;;;;;;4974555;28;20022;-70
2022/03/06 09:13:04;;;;;;;14.80;11.60;;;6.60;99.90;;;;;;4989096;28;20022;-70
2022/03/06 09:15:30;;;;;;;16.63;11.75;;;6.80;99.90;;;;;;4973564;28;20045;-70
2022/03/06 09:17:56;;;;;;;14.80;11.73;;;6.80;99.90;;;;;;4974486;28;20547;-70
2022/03/06 09:20:23;;;;;;;19.45;12.65;;;6.80;99.90;;;;;;4992827;28;20026;-72
2022/03/06 09:22:49;;;;;;;12.70;11.02;;;6.70;99.90;;;;;;4992138;28;20034;-70
2022/03/06 09:25:15;;;;;;;16.70;9.55;;;6.70;99.90;;;;;;4975587;28;20496;-70
2022/03/06 09:27:42;;;;;;;10.57;9.50;;;6.70;99.90;;;;;;4992034;28;20117;-72
2022/03/06 09:30:08;;;;;;;21.05;14.25;;;6.60;99.90;;;;;;4974240;28;20038;-71
2022/03/06 09:32:35;;;;;;;15.55;10.40;;;6.70;99.90;;;;;;4968629;28;20037;-70
2022/03/06 09:35:01;;;;;;;19.88;11.18;;;6.90;99.90;;;;;;4974253;28;20030;-69
2022/03/06 09:37:26;;;;;;;14.43;10.98;;;6.90;99.90;;;;;;4992219;28;20023;-70
2022/03/06 09:39:52;;;;;;;13.75;9.48;;;6.80;99.90;;;;;;4974255;28;20025;-71
2022/03/06 09:42:18;;;;;;;12.57;9.20;;;6.80;99.90;;;;;;4991305;28;20033;-70
2022/03/06 09:44:48;;;;;;;20.30;13.43;;;6.90;99.90;;;;;;4991962;28;20514;-70
2022/03/06 09:47:16;;;;;;;14.13;10.32;;;7.00;99.90;;;;;;4990368;28;20034;-70
2022/03/06 09:49:45;;;;;;;14.23;9.60;;;7.10;99.90;;;;;;4992218;28;20022;-69
2022/03/06 09:52:12;;;;;;;22.40;10.20;;;7.10;99.90;;;;;;4991424;28;20026;-71
2022/03/06 09:54:39;;;;;;;14.20;9.25;;;7.00;99.90;;;;;;4991400;28;20026;-70
2022/03/06 09:57:05;;;;;;;12.05;9.20;;;7.00;99.90;;;;;;4990678;28;20030;-65
2022/03/06 09:59:32;;;;;;;13.32;9.93;;;6.90;99.90;;;;;;4990900;28;20109;-65
2022/03/06 10:02:02;;;;;;;15.40;10.20;;;7.00;99.90;;;;;;4973441;28;20076;-65
2022/03/06 10:04:30;;;;;;;15.05;11.90;;;7.10;99.90;;;;;;4977829;28;20033;-66
2022/03/06 10:07:05;;;;;;;13.38;9.40;;;7.30;99.90;;;;;;4973613;28;20018;-66
2022/03/06 10:09:33;;;;;;;15.25;10.85;;;7.20;99.90;;;;;;4973676;28;20124;-66
2022/03/06 10:11:59;;;;;;;20.15;12.45;;;7.30;99.90;;;;;;4990799;28;20022;-66
2022/03/06 10:14:41;;;;;;;14.85;10.07;;;7.30;99.90;;;;;;4974052;28;20042;-67
2022/03/06 10:17:17;;;;;;;15.50;11.15;;;7.40;99.90;;;;;;4991639;28;20038;-66
2022/03/06 10:20:01;;;;;;;15.88;10.82;;;7.30;99.90;;;;;;4991066;28;20469;-66
2022/03/06 10:22:29;;;;;;;18.08;12.27;;;7.40;99.90;;;;;;4990795;28;20129;-66
2022/03/06 10:24:59;;;;;;;11.35;10.02;;;7.50;99.90;;;;;;4990107;28;20014;-65
2022/03/06 10:27:44;;;;;;;19.77;9.95;;;7.40;99.90;;;;;;4972115;28;20117;-66
2022/03/06 10:30:27;;;;;;;13.90;9.93;;;7.40;99.90;;;;;;4988917;28;20023;-66
2022/03/06 10:32:54;;;;;;;14.88;10.63;;;7.50;99.90;;;;;;4990809;28;20038;-66
2022/03/06 10:35:25;;;;;;;14.45;10.10;;;7.40;99.90;;;;;;4974214;28;20038;-67
2022/03/06 10:37:51;;;;;;;14.05;11.52;;;7.50;99.90;;;;;;4973266;28;20026;-67
2022/03/06 10:40:32;;;;;;;15.13;11.27;;;7.50;99.90;;;;;;4982680;28;20023;-66
2022/03/06 10:42:57;;;;;;;13.82;9.65;;;7.50;99.90;;;;;;4983280;28;20023;-66
2022/03/06 10:45:23;;;;;;;13.98;9.38;;;7.60;99.90;;;;;;4990500;28;20140;-67
2022/03/06 10:47:49;;;;;;;11.88;10.00;;;7.60;99.90;;;;;;4977923;28;20027;-66
2022/03/06 10:50:20;;;;;;;15.68;12.10;;;7.70;99.90;;;;;;4983383;28;21121;-68
2022/03/06 10:52:46;;;;;;;14.50;10.27;;;7.90;99.90;;;;;;4990273;28;20488;-66
2022/03/06 10:55:12;;;;;;;16.38;12.07;;;7.80;99.90;;;;;;4986099;28;20054;-67
2022/03/06 10:57:39;;;;;;;22.00;12.23;;;7.80;99.90;;;;;;4971221;28;20041;-66
2022/03/06 11:00:06;;;;;;;19.15;11.43;;;7.80;99.90;;;;;;4989702;28;20505;-68
2022/03/06 11:02:35;;;;;;;12.77;10.80;;;7.70;99.90;;;;;;4985811;28;20066;-66
2022/03/06 11:05:02;;;;;;;15.35;11.18;;;7.70;99.90;;;;;;4968950;28;20030;-66
2022/03/06 11:07:28;;;;;;;18.98;14.30;;;7.80;99.90;;;;;;4972800;28;20022;-67
2022/03/06 11:09:59;;;;;;;16.80;12.15;;;7.90;99.90;;;;;;4985427;28;20073;-65
2022/03/06 11:12:25;;;;;;;15.77;11.77;;;7.70;99.90;;;;;;4987820;28;20022;-67
2022/03/06 11:14:52;;;;;;;14.98;11.45;;;7.60;99.90;;;;;;4985653;28;20019;-68
2022/03/06 11:17:17;;;;;;;19.05;10.65;;;7.60;99.90;;;;;;4989992;28;20077;-67
2022/03/06 11:19:43;;;;;;;15.88;12.27;;;7.90;99.90;;;;;;4975042;28;20511;-67
2022/03/06 11:22:54;;;;;;;19.05;13.85;;;8.00;99.90;;;;;;4975221;28;20396;-66
2022/03/06 11:25:25;;;;;;;19.05;12.98;;;8.20;99.90;;;;;;4980216;28;20173;-67
2022/03/06 11:28:01;;;;;;;18.27;10.75;;;8.40;99.90;;;;;;4975016;28;20023;-66
2022/03/06 11:30:27;;;;;;;18.42;14.40;;;8.40;99.90;;;;;;4988366;28;20129;-65
2022/03/06 11:33:08;;;;;;;17.88;11.57;;;8.30;99.90;;;;;;4990393;28;20042;-67
2022/03/06 11:35:40;;;;;;;13.02;9.93;;;8.30;99.90;;;;;;4969435;28;20079;-66
2022/03/06 11:38:08;;;;;;;17.13;13.10;;;8.10;99.90;;;;;;4994141;28;20031;-66
2022/03/06 11:40:38;;;;;;;16.63;11.27;;;7.90;99.90;;;;;;4988792;28;20092;-66
2022/03/06 11:43:06;;;;;;;17.83;11.63;;;7.90;99.90;;;;;;4990688;28;20061;-66
2022/03/06 11:45:58;;;;;;;14.35;12.07;;;7.90;99.90;;;;;;4989327;28;20028;-66
2022/03/06 11:48:33;;;;;;;13.85;11.30;;;7.60;99.90;;;;;;4991462;28;20096;-66
2022/03/06 11:51:16;;;;;;;16.35;11.18;;;7.70;99.90;;;;;;4994884;28;20075;-67
2022/03/06 11:54:06;;;;;;;11.98;8.88;;;7.70;99.90;;;;;;4991326;28;20041;-65
2022/03/06 11:56:35;;;;;;;15.45;8.73;;;7.70;99.90;;;;;;4993359;28;20428;-65
2022/03/06 11:59:10;;;;;;;17.67;11.98;;;7.60;99.90;;;;;;4984698;28;20033;-67
2022/03/06 12:01:40;;;;;;;17.15;10.75;;;7.50;99.90;;;;;;4992272;28;20077;-67
2022/03/06 12:04:17;;;;;;;15.93;12.23;;;7.40;99.90;;;;;;4993368;28;20193;-67
2022/03/06 12:06:47;;;;;;;21.80;12.90;;;7.30;99.90;;;;;;4993611;28;20220;-65
2022/03/06 12:09:21;;;;;;;17.83;11.93;;;7.30;99.90;;;;;;4992874;28;20018;-67
2022/03/06 12:11:50;;;;;;;16.48;11.57;;;7.40;99.90;;;;;;4973307;28;20050;-66
2022/03/06 12:14:28;;;;;;;15.13;11.57;;;7.50;99.90;;;;;;4992056;28;20034;-66
2022/03/06 12:17:03;;;;;;;17.20;12.27;;;7.40;99.90;;;;;;4974821;28;20022;-66
2022/03/06 12:19:45;;;;;;;19.50;11.48;;;7.40;99.90;;;;;;4992384;28;20034;-67
2022/03/06 12:22:14;;;;;;;18.90;11.32;;;7.50;99.90;;;;;;4989809;28;20030;-66
2022/03/06 12:24:43;;;;;;;17.92;11.48;;;7.60;99.90;;;;;;4990743;28;20481;-66
2022/03/06 12:27:14;;;;;;;14.43;11.18;;;7.60;99.90;;;;;;4975203;28;20377;-66
2022/03/06 12:29:47;;;;;;;23.75;12.07;;;7.70;99.90;;;;;;4973953;28;20023;-66
2022/03/06 12:32:25;;;;;;;13.85;11.73;;;7.60;99.90;;;;;;4991691;28;20050;-66
2022/03/06 12:34:58;;;;;;;14.88;10.68;;;7.70;99.90;;;;;;4992409;28;20065;-67
2022/03/06 12:37:34;;;;;;;16.95;11.10;;;7.90;99.90;;;;;;4975208;28;20075;-67
2022/03/06 12:40:01;;;;;;;14.63;10.73;;;8.10;99.90;;;;;;4990195;28;20076;-66